Latest Weather Observations for Falls Creek

IDV60801

Issued at 7:02 am EST Sunday 26 June 2016 (issued every 30 minutes, with the page automatically refreshed every 10 minutes)

About weather observations | Map of weather stations | Latest weather observations for VIC | Other Formats
Station Details ID: 083084 Name: FALLS CREEK Lat: -36.87 Lon: 147.28 Height: 1765.0 m
Data from the previous 72 hours. | See also: Recent months at Falls Creek
Date/Time
EST
Temp
°C
App
Temp
°C
Dew
Point
°C
Rel
Hum
%
Delta-T
°C
Wind Press
QNH
hPa
Press
MSL
hPa
Rain since
9am
mm
Dir  Spd
km/h
Gust
km/h
Spd
kts
Gust
kts
26/07:00am -3.3 -7.5 -3.6 98 0.0 E 9 13 5 7 1017.4 1018.9 0.2
26/06:30am -3.3 -6.1 -3.6 98 0.0 W 2 7 1 4 1017.6 1019.1 0.2
26/06:00am -2.7 -6.8 -3.0 98 0.0 SE 9 13 5 7 1017.1 1018.7 0.2
26/05:30am -3.3 -8.2 -3.6 98 0.0 SSE 13 13 7 7 1016.9 1018.4 0.2
26/05:00am -4.0 -9.4 -4.3 98 -0.1 SSE 15 17 8 9 1016.7 1018.2 0.2
26/04:30am -4.1 -10.3 -4.5 97 0.0 SSE 19 22 10 12 1016.4 1017.9 0.2
26/04:00am -4.1 -10.3 -4.5 97 0.0 SSE 19 22 10 12 1016.8 1018.3 0.2
26/03:30am -3.9 -9.7 -4.3 97 0.0 SSE 17 20 9 11 1017.0 1018.5 0.2
26/03:00am -3.8 -8.4 -4.2 97 0.0 SSE 11 15 6 8 1017.7 1019.3 0.2
26/02:30am -3.8 -8.0 -4.2 97 0.0 SSE 9 15 5 8 1017.9 1019.4 0.2
26/02:00am -3.6 -9.7 -4.0 97 0.0 SSE 19 22 10 12 1017.0 1018.5 0.2
26/01:30am -3.8 -8.4 -4.2 97 0.0 SSE 11 15 6 8 1017.7 1019.3 0.2
26/01:00am -3.7 -9.8 -4.1 97 0.0 SSE 19 22 10 12 1017.5 1019.0 0.2
26/12:30am -3.9 -11.0 -4.3 97 0.0 SSE 24 28 13 15 1017.1 1018.7 0.2
26/12:00am -3.9 -11.0 -4.2 98 -0.1 SSE 24 30 13 16 1017.3 1018.8 0.2
 
Date/Time
EST
Temp
°C
App
Temp
°C
Dew
Point
°C
Rel
Hum
%
Delta-T
°C
Wind Press
QNH
hPa
Press
MSL
hPa
Rain since
9am
mm
Dir  Spd
km/h
Gust
km/h
Spd
kts
Gust
kts
25/11:30pm -3.7 -10.4 -4.0 98 -0.1 SSE 22 30 12 16 1017.4 1018.9 0.2
25/11:00pm -3.9 -11.4 -4.2 98 -0.1 SSE 26 35 14 19 1017.5 1019.0 0.2
25/10:30pm -4.3 -11.4 -4.6 98 -0.1 SSE 24 32 13 17 1017.6 1019.1 0.2
25/10:00pm -4.4 -11.2 -4.7 98 -0.1 SSE 22 32 12 17 1017.6 1019.1 0.2
25/09:30pm -4.0 -11.9 -4.3 98 -0.1 SSE 28 41 15 22 1017.5 1019.0 0.2
25/09:00pm -4.0 -12.2 -4.3 98 -0.1 SSE 30 39 16 21 1017.6 1019.1 0.2
25/08:30pm -3.9 -13.5 -4.2 98 -0.1 S 37 48 20 26 1017.6 1019.1 0.2
25/08:00pm -4.0 -13.2 -4.3 98 -0.1 SSE 35 46 19 25 1017.6 1019.1 0.2
25/07:30pm -4.4 -12.7 -4.7 98 -0.1 S 30 41 16 22 1017.7 1019.3 0.2
25/07:00pm -4.5 -11.7 -4.9 97 -0.1 S 24 35 13 19 1017.9 1019.4 0.2
25/06:30pm -4.5 -12.4 -4.9 97 -0.1 S 28 41 15 22 1017.4 1018.9 0.2
25/06:00pm -4.4 -11.5 -4.8 97 -0.1 SSE 24 32 13 17 1017.5 1019.0 0.2
25/05:30pm -4.6 -12.1 -5.0 97 -0.1 S 26 35 14 19 1017.3 1018.8 0.2
25/05:00pm -4.4 -12.7 -4.8 97 -0.1 S 30 37 16 20 1017.0 1018.5 0.2
25/04:30pm -4.2 -12.1 -4.6 97 0.0 S 28 35 15 19 1016.9 1018.4 0.2
25/04:00pm -4.3 -10.7 -4.7 97 -0.1 SSW 20 24 11 13 1017.4 1018.9 0.2
25/03:30pm -4.2 -11.0 -4.7 96 0.0 S 22 30 12 16 1016.9 1018.4 0.2
25/03:00pm -4.2 -11.3 -4.6 97 0.0 S 24 32 13 17 1016.7 1018.2 0.2
25/02:30pm -4.2 -12.1 -4.6 97 0.0 SSW 28 33 15 18 1016.5 1018.0 0.2
25/02:00pm -4.3 -11.8 -4.7 97 -0.1 SSW 26 32 14 17 1016.5 1018.0 0.2
25/01:30pm -3.8 -9.6 -4.2 97 0.0 S 17 22 9 12 1016.9 1018.4 0.2
25/01:00pm -4.0 -11.1 -4.4 97 0.0 S 24 33 13 18 1016.5 1018.0 0.2
25/12:30pm -4.2 -11.7 -4.6 97 0.0 S 26 33 14 18 1016.7 1018.2 0.2
25/12:00pm -4.7 -13.4 -5.1 97 -0.1 SSW 32 39 17 21 1016.5 1018.0 0.2
25/11:30am -4.7 -12.3 -5.1 97 -0.1 S 26 41 14 22 1016.5 1018.0 0.2
25/11:00am -4.8 -13.5 -5.2 97 -0.1 S 32 43 17 23 1016.3 1017.8 0.2
25/10:30am -5.2 -12.4 -5.7 96 -0.1 S 24 33 13 18 1016.7 1018.2 0.2
25/10:00am -5.3 -12.9 -5.8 96 -0.1 SSW 26 37 14 20 1016.7 1018.2 0.0
25/09:30am -5.4 -15.1 -5.9 96 -0.1 SSW 37 50 20 27 1015.7 1017.2 0.0
25/09:00am -5.4 -15.9 -5.8 97 -0.1 SSW 41 48 22 26 1014.6 1016.0 0.4
25/08:30am -5.7 -16.6 -6.2 96 -0.1 SSW 43 54 23 29 1014.4 1015.8 0.4
25/08:00am -6.4 -17.0 -6.9 96 -0.1 SSW 41 50 22 27 1013.9 1015.3 0.4
25/07:30am -6.3 -15.4 -6.8 96 -0.1 S 33 41 18 22 1014.3 1015.7 0.4
25/07:00am -6.2 -16.0 -6.7 96 -0.1 S 37 48 20 26 1014.0 1015.4 0.4
25/06:30am -6.1 -16.3 -6.6 96 -0.1 S 39 56 21 30 1013.7 1015.1 0.4
25/06:21am -6.1 -15.1 -6.6 96 -0.1 S 33 56 18 30 1013.5 1014.8 0.4
25/06:00am -5.9 -13.2 -6.4 96 -0.1 S 24 39 13 21 1013.6 1014.9 0.4
25/05:34am -6.2 -14.7 -6.7 96 -0.1 S 30 48 16 26 1013.3 1014.7 0.4
25/05:30am -6.2 -15.2 -6.7 96 -0.1 SSW 33 48 18 26 1013.2 1014.6 0.4
25/05:00am -6.3 -14.8 -6.8 96 -0.1 SSW 30 39 16 21 1012.9 1014.2 0.4
25/04:30am -6.2 -16.4 -6.7 96 -0.1 SSW 39 56 21 30 1012.3 1013.6 0.4
25/04:05am -6.1 -16.3 -6.6 96 -0.1 SSW 39 57 21 31 1011.8 1013.1 0.4
25/04:00am -6.2 -16.4 -6.7 96 -0.1 SSW 39 50 21 27 1011.9 1013.2 0.4
25/03:30am -6.3 -16.5 -6.8 96 -0.1 SSW 39 52 21 28 1011.4 1012.7 0.4
25/03:00am -6.8 -16.7 -7.5 95 0.0 SW 37 44 20 24 1011.4 1012.7 0.4
25/02:30am -6.7 -15.6 -7.4 95 0.0 SSW 32 39 17 21 1011.5 1012.8 0.4
25/02:00am -6.9 -15.8 -7.6 95 -0.1 SW 32 41 17 22 1011.5 1012.8 0.4
25/01:30am -7.0 -15.9 -7.7 95 -0.1 SW 32 44 17 24 1011.2 1012.4 0.4
25/01:00am -6.8 -16.3 -7.5 95 0.0 SW 35 52 19 28 1010.5 1011.7 0.4
25/12:58am -6.7 -15.6 -7.4 95 0.0 SW 32 52 17 28 1010.4 1011.6 0.4
25/12:30am -6.5 -14.6 -7.2 95 0.0 SW 28 35 15 19 1010.4 1011.6 0.4
25/12:00am -6.5 -16.7 -7.2 95 0.0 SW 39 54 21 29 1009.9 1011.1 0.4
 
Date/Time
EST
Temp
°C
App
Temp
°C
Dew
Point
°C
Rel
Hum
%
Delta-T
°C
Wind Press
QNH
hPa
Press
MSL
hPa
Rain since
9am
mm
Dir  Spd
km/h
Gust
km/h
Spd
kts
Gust
kts
24/11:54pm -6.4 -15.8 -6.9 96 -0.1 SW 35 54 19 29 1009.8 1011.0 0.4
24/11:30pm -6.9 -15.8 -7.6 95 -0.1 SW 32 43 17 23 1009.9 1011.1 0.4
24/11:00pm -6.6 -16.1 -7.3 95 0.0 SW 35 48 19 26 1009.2 1010.3 0.4
24/10:34pm -6.7 -17.7 -7.4 95 0.0 SW 43 61 23 33 1008.8 1010.0 0.4
24/10:30pm -6.7 -18.3 -7.4 95 0.0 SW 46 61 25 33 1008.7 1009.8 0.4
24/10:00pm -6.8 -17.1 -7.5 95 0.0 SW 39 48 21 26 1008.3 1009.5 0.4
24/09:30pm -6.6 -15.1 -7.1 96 -0.1 SW 30 39 16 21 1008.3 1009.5 0.4
24/09:00pm -6.2 -15.1 -6.7 96 -0.1 SW 32 43 17 23 1008.1 1009.2 0.4
24/08:30pm -6.2 -16.0 -6.7 96 -0.1 SW 37 48 20 26 1007.7 1008.9 0.4
24/08:18pm -6.0 -14.1 -6.5 96 -0.1 WSW 28 50 15 27 1007.3 1008.4 0.4
24/08:00pm -5.9 -13.2 -6.4 96 -0.1 WSW 24 33 13 18 1007.4 1008.5 0.4
24/07:30pm -6.3 -14.4 -6.8 96 -0.1 WSW 28 39 15 21 1006.4 1007.5 0.4
24/07:00pm -6.3 -14.8 -6.8 96 -0.1 WSW 30 41 16 22 1006.1 1007.1 0.4
24/06:30pm -5.9 -14.0 -6.4 96 -0.1 WSW 28 37 15 20 1005.6 1006.6 0.4
24/06:00pm -6.1 -13.8 -6.6 96 -0.1 W 26 37 14 20 1004.9 1005.9 0.4
24/05:30pm -5.8 -13.5 -6.3 96 -0.1 WSW 26 44 14 24 1004.2 1005.1 0.4
24/05:06pm -5.3 -13.3 -5.8 96 -0.1 WSW 28 46 15 25 1003.7 1004.6 0.4
24/05:00pm -4.9 -12.1 -5.3 97 -0.1 W 24 37 13 20 1003.7 1004.6 0.4
24/04:30pm -4.6 -11.0 -5.0 97 -0.1 WNW 20 30 11 16 1003.0 1003.9 0.4
24/04:00pm -4.4 -11.5 -4.7 98 -0.1 W 24 35 13 19 1002.0 1002.9 0.4
24/03:30pm -4.0 -10.7 -4.3 98 -0.1 W 22 32 12 17 1001.6 1002.4 0.4
24/03:00pm -4.0 -12.6 -4.3 98 -0.1 W 32 46 17 25 1001.0 1001.8 0.4
24/02:46pm -4.0 -12.8 -4.3 98 -0.1 W 33 56 18 30 1000.5 1001.3 0.4
24/02:30pm -3.7 -10.0 -4.0 98 -0.1 WNW 20 30 11 16 1000.6 1001.4 0.4
24/02:00pm -3.6 -10.3 -3.9 98 -0.1 WNW 22 41 12 22 1000.1 1000.9 0.4
24/01:30pm -3.6 -9.9 -3.9 98 -0.1 NW 20 35 11 19 1000.0 1000.8 0.4
24/01:00pm -3.4 -10.8 -3.7 98 -0.1 WNW 26 39 14 21 999.5 1000.3 0.4
24/12:44pm -3.3 -11.1 -3.6 98 0.0 WNW 28 48 15 26 999.5 1000.3 0.4
24/12:30pm -3.1 -10.5 -3.4 98 0.0 NW 26 41 14 22 999.4 1000.2 0.4
24/12:00pm -3.3 -6.9 -3.6 98 0.0 NW 6 32 3 17 999.2 999.9 0.4
24/11:30am -3.8 -6.7 -4.1 98 -0.1 WNW 2 2 1 1 999.4 1000.2 0.4
24/11:00am -3.9 -6.8 -4.2 98 -0.1 WNW 2 2 1 1 999.1 999.8 0.4
24/10:30am -3.6 -6.5 -3.9 98 -0.1 NW 2 2 1 1 998.8 999.5 0.4
24/10:00am -3.7 -7.9 -4.0 98 -0.1 NNW 9 15 5 8 998.3 999.1 0.4
24/09:30am -3.7 -9.0 -4.0 98 -0.1 NNW 15 22 8 12 997.7 998.4 0.2
24/09:00am -3.8 -10.5 -4.1 98 -0.1 NNW 22 33 12 18 997.6 998.3 14.4
24/08:32am -3.9 -11.7 -4.2 98 -0.1 NNW 28 46 15 25 997.3 997.9 14.4
24/08:30am -3.9 -11.7 -4.2 98 -0.1 NNW 28 41 15 22 997.2 997.8 14.4
24/08:00am -4.1 -12.0 -4.4 98 -0.1 NNW 28 41 15 22 997.0 997.7 14.4
24/07:30am -4.1 -12.0 -4.4 98 -0.1 NNW 28 44 15 24 997.5 998.2 14.4
24/07:00am -4.0 -11.1 -4.3 98 -0.1 NW 24 41 13 22 997.5 998.2 14.4
24/06:39am -3.9 -11.7 -4.2 98 -0.1 NW 28 48 15 26 997.0 997.7 14.4
24/06:30am -3.8 -11.3 -4.1 98 -0.1 NW 26 43 14 23 997.2 997.8 14.4
24/06:05am -3.7 -11.5 -4.0 98 -0.1 NNW 28 46 15 25 997.0 997.7 14.4
24/06:00am -3.7 -12.3 -4.0 98 -0.1 NNW 32 48 17 26 996.8 997.4 14.4
24/05:53am -3.7 -11.5 -4.0 98 -0.1 NNW 28 48 15 26 996.7 997.3 14.4
24/05:30am -3.8 -12.0 -4.1 98 -0.1 NNW 30 44 16 24 996.4 997.1 14.4
24/05:08am -3.7 -11.5 -4.0 98 -0.1 NNW 28 46 15 25 996.9 997.6 14.4
24/05:00am -3.7 -12.3 -4.0 98 -0.1 NNW 32 46 17 25 996.9 997.6 14.4
24/04:30am -3.6 -10.6 -3.9 98 -0.1 NNW 24 33 13 18 997.0 997.7 14.4
24/04:00am -3.6 -11.0 -3.9 98 -0.1 NNW 26 37 14 20 997.0 997.7 14.4
24/03:30am -3.6 -10.6 -3.9 98 -0.1 NNW 24 33 13 18 997.3 997.9 14.4
24/03:00am -3.6 -10.3 -3.9 98 -0.1 NW 22 37 12 20 997.3 997.9 14.4
24/02:47am -3.6 -11.4 -3.9 98 -0.1 WNW 28 46 15 25 997.3 997.9 14.4
24/02:30am -3.7 -11.5 -4.0 98 -0.1 WNW 28 41 15 22 997.0 997.7 14.4
24/02:00am -3.7 -10.0 -4.0 98 -0.1 WNW 20 30 11 16 997.2 997.8 14.4
24/01:30am -3.5 -11.7 -3.8 98 -0.1 W 30 54 16 29 997.5 998.2 14.4
24/01:28am -3.5 -11.3 -3.8 98 -0.1 W 28 54 15 29 997.4 998.1 14.4
24/01:00am -3.3 -11.1 -3.6 98 0.0 W 28 41 15 22 998.2 998.9 14.4
24/12:30am -2.7 -10.4 -3.0 98 0.0 W 28 48 15 26 998.6 999.3 13.8
24/12:22am -2.4 -10.8 -2.5 99 -0.1 W 32 50 17 27 998.5 999.2 13.6
24/12:00am -1.2 -9.6 -1.3 99 0.0 WNW 33 48 18 26 997.5 998.2 12.8
 
Date/Time
EST
Temp
°C
App
Temp
°C
Dew
Point
°C
Rel
Hum
%
Delta-T
°C
Wind Press
QNH
hPa
Press
MSL
hPa
Rain since
9am
mm
Dir  Spd
km/h
Gust
km/h
Spd
kts
Gust
kts
23/11:40pm -0.8 -10.3 -0.9 99 0.0 NW 39 63 21 34 997.2 997.8 12.2
23/11:39pm -0.7 -10.2 -0.8 99 0.0 NNW 39 63 21 34 997.3 997.9 12.2
23/11:30pm -0.7 -11.2 -0.8 99 0.0 NNW 44 65 24 35 996.3 996.9 11.6
23/11:14pm -0.5 -10.7 -0.6 99 0.0 N 43 67 23 36 996.1 996.7 10.4
23/11:00pm -0.6 -13.3 -0.7 99 0.0 N 56 80 30 43 995.8 996.4 10.2
23/10:30pm -0.5 -11.3 -0.6 99 0.0 NNW 46 69 25 37 996.9 997.6 10.2
23/10:00pm -0.4 -9.9 -0.5 99 0.0 NNW 39 70 21 38 998.0 998.7 10.2
23/09:30pm -0.4 -9.9 -0.5 99 0.0 NNW 39 63 21 34 998.5 999.2 9.8
23/09:00pm -0.5 -10.4 -0.6 99 0.0 NNW 41 67 22 36 998.5 999.2 9.6
23/08:30pm -0.9 -11.8 -1.0 99 0.0 NNW 46 69 25 37 999.1 999.8 9.4
23/08:00pm -1.0 -11.3 -1.1 99 0.0 NW 43 67 23 36 999.4 1000.2 8.8
23/07:40pm -1.0 -9.4 -1.1 99 0.0 NW 33 52 18 28 999.5 1000.3 7.6
23/07:30pm -0.8 -9.0 -0.9 99 0.0 NW 32 48 17 26 999.7 1000.4 6.8
23/07:00pm -0.1 -9.9 -0.2 99 0.0 NNW 41 65 22 35 999.3 1000.0 3.8
23/06:30pm -0.2 -12.5 -0.3 99 0.0 NNW 54 83 29 45 998.7 999.4 3.2
23/06:22pm -0.3 -11.1 -0.4 99 0.0 NNW 46 78 25 42 998.7 999.4 3.0
23/06:03pm -0.4 -9.9 -0.5 99 0.0 NNW 39 57 21 31 999.5 1000.3 2.6
23/06:00pm -0.4 -10.6 -0.5 99 0.0 NNW 43 57 23 31 999.4 1000.2 2.4
23/05:30pm -0.6 -11.8 -0.7 99 0.0 NNW 48 74 26 40 999.4 1000.2 2.2
23/05:00pm -0.7 -13.1 -0.8 99 0.0 NNW 54 78 29 42 998.8 999.5 2.0
23/04:33pm -0.8 -13.6 -0.9 99 0.0 NNW 56 74 30 40 999.2 999.9 2.0
23/04:30pm -0.8 -13.7 -0.9 99 0.0 NNW 57 74 31 40 998.7 999.4 2.0
23/04:00pm -1.0 -14.0 -1.1 99 0.0 NNW 57 80 31 43 998.6 999.3 1.8
23/03:30pm -1.0 -14.3 -1.1 99 0.0 NNW 59 87 32 47 998.6 999.3 1.8
23/03:00pm -1.1 -14.8 -1.2 99 0.0 NNW 61 83 33 45 998.3 999.1 1.6
23/02:30pm -1.0 -14.3 -1.1 99 0.0 NNW 59 85 32 46 999.1 999.8 1.2
23/02:00pm -1.1 -14.5 -1.2 99 0.0 NNW 59 85 32 46 999.2 999.9 1.0
23/01:30pm -1.1 -14.8 -1.2 99 0.0 NNW 61 89 33 48 999.7 1000.4 1.0
23/01:00pm -1.0 -13.4 -1.1 99 0.0 NNW 54 78 29 42 1000.5 1001.3 0.8
23/12:30pm -0.9 -13.3 -1.0 99 0.0 NNW 54 76 29 41 1001.2 1002.0 0.6
23/12:00pm -0.9 -13.9 -1.0 99 0.0 NW 57 82 31 44 1001.8 1002.6 0.6
23/11:30am -0.7 -13.4 -0.8 99 0.0 NNW 56 89 30 48 1001.8 1002.6 0.6
23/11:00am -0.8 -13.6 -0.9 99 0.0 NNW 56 87 30 47 1002.0 1002.9 0.6
23/10:30am -0.8 -13.7 -0.9 99 0.0 NNW 57 80 31 43 1002.1 1003.0 0.4
23/10:00am -0.9 -13.9 -1.0 99 0.0 NNW 57 83 31 45 1003.2 1004.1 0.4
23/09:30am -0.9 -13.9 -1.0 99 0.0 NNW 57 91 31 49 1003.2 1004.1 0.4
23/09:00am -0.6 -13.3 -0.7 99 0.0 NNW 56 80 30 43 1003.2 1004.1 8.4
23/08:30am -0.7 -12.3 -0.8 99 0.0 NNW 50 69 27 37 1003.5 1004.4 7.8
23/08:00am -0.9 -12.9 -1.0 99 0.0 NW 52 74 28 40 1004.2 1005.1 7.6
23/07:30am -0.9 -12.5 -1.0 99 0.0 NNW 50 72 27 39 1004.2 1005.1 7.6

Other Formats:

Comma delimited format used in spreadsheet applications
http://www.bom.gov.au/fwo/IDV60801/IDV60801.94903.axf

JavaScript Object Notation format (JSON) in row-major order
http://www.bom.gov.au/fwo/IDV60801/IDV60801.94903.json